sensor_id;sensor_type;location;lat;lon;timestamp;P1;durP1;ratioP1;P2;durP2;ratioP2
3141;SDS011;1581;51.568;6.998;2022-07-22T00:00:42;4.17;;;2.00;;
3141;SDS011;1581;51.568;6.998;2022-07-22T00:03:11;2.20;;;2.00;;
3141;SDS011;1581;51.568;6.998;2022-07-22T00:05:38;6.50;;;2.10;;
3141;SDS011;1581;51.568;6.998;2022-07-22T00:08:06;2.93;;;2.40;;
3141;SDS011;1581;51.568;6.998;2022-07-22T00:10:34;1.87;;;1.77;;
3141;SDS011;1581;51.568;6.998;2022-07-22T00:13:03;3.43;;;1.63;;
3141;SDS011;1581;51.568;6.998;2022-07-22T00:15:31;3.60;;;1.53;;
3141;SDS011;1581;51.568;6.998;2022-07-22T00:17:59;5.57;;;1.80;;
3141;SDS011;1581;51.568;6.998;2022-07-22T00:20:26;3.47;;;1.43;;
3141;SDS011;1581;51.568;6.998;2022-07-22T00:22:55;2.40;;;1.57;;
3141;SDS011;1581;51.568;6.998;2022-07-22T00:25:23;9.60;;;1.87;;
3141;SDS011;1581;51.568;6.998;2022-07-22T00:27:53;2.60;;;1.70;;
3141;SDS011;1581;51.568;6.998;2022-07-22T00:30:23;4.37;;;1.73;;
3141;SDS011;1581;51.568;6.998;2022-07-22T00:32:51;3.97;;;1.90;;
3141;SDS011;1581;51.568;6.998;2022-07-22T00:35:19;4.37;;;1.90;;
3141;SDS011;1581;51.568;6.998;2022-07-22T00:37:47;6.20;;;1.87;;
3141;SDS011;1581;51.568;6.998;2022-07-22T00:40:15;3.47;;;1.87;;
3141;SDS011;1581;51.568;6.998;2022-07-22T00:42:42;5.20;;;2.17;;
3141;SDS011;1581;51.568;6.998;2022-07-22T00:45:10;2.23;;;1.90;;
3141;SDS011;1581;51.568;6.998;2022-07-22T00:47:40;3.07;;;1.90;;
3141;SDS011;1581;51.568;6.998;2022-07-22T00:50:08;2.17;;;1.70;;
3141;SDS011;1581;51.568;6.998;2022-07-22T00:52:36;2.60;;;1.70;;
3141;SDS011;1581;51.568;6.998;2022-07-22T00:55:05;6.83;;;1.70;;
3141;SDS011;1581;51.568;6.998;2022-07-22T00:57:34;3.90;;;1.80;;
3141;SDS011;1581;51.568;6.998;2022-07-22T01:00:05;1.63;;;1.50;;
3141;SDS011;1581;51.568;6.998;2022-07-22T01:02:36;7.40;;;2.13;;
3141;SDS011;1581;51.568;6.998;2022-07-22T01:05:06;4.07;;;1.70;;
3141;SDS011;1581;51.568;6.998;2022-07-22T01:07:36;1.93;;;1.60;;
3141;SDS011;1581;51.568;6.998;2022-07-22T01:10:05;2.67;;;1.63;;
3141;SDS011;1581;51.568;6.998;2022-07-22T01:12:34;4.57;;;2.40;;
3141;SDS011;1581;51.568;6.998;2022-07-22T01:15:02;5.07;;;1.73;;
3141;SDS011;1581;51.568;6.998;2022-07-22T01:17:31;7.80;;;2.27;;
3141;SDS011;1581;51.568;6.998;2022-07-22T01:20:00;4.60;;;1.90;;
3141;SDS011;1581;51.568;6.998;2022-07-22T01:22:30;4.43;;;1.87;;
3141;SDS011;1581;51.568;6.998;2022-07-22T01:24:58;5.87;;;2.17;;
3141;SDS011;1581;51.568;6.998;2022-07-22T01:27:26;3.33;;;2.10;;
3141;SDS011;1581;51.568;6.998;2022-07-22T01:29:54;11.47;;;2.23;;
3141;SDS011;1581;51.568;6.998;2022-07-22T01:32:22;3.43;;;1.70;;
3141;SDS011;1581;51.568;6.998;2022-07-22T01:34:50;8.10;;;1.97;;
3141;SDS011;1581;51.568;6.998;2022-07-22T01:37:19;5.50;;;2.40;;
3141;SDS011;1581;51.568;6.998;2022-07-22T01:39:47;3.73;;;1.50;;
3141;SDS011;1581;51.568;6.998;2022-07-22T01:42:15;13.57;;;1.87;;
3141;SDS011;1581;51.568;6.998;2022-07-22T01:44:42;9.33;;;2.83;;
3141;SDS011;1581;51.568;6.998;2022-07-22T01:47:10;5.87;;;2.63;;
3141;SDS011;1581;51.568;6.998;2022-07-22T01:49:38;10.70;;;2.30;;
3141;SDS011;1581;51.568;6.998;2022-07-22T01:52:05;2.90;;;1.87;;
3141;SDS011;1581;51.568;6.998;2022-07-22T01:54:35;10.33;;;1.80;;
3141;SDS011;1581;51.568;6.998;2022-07-22T01:57:02;3.60;;;2.23;;
3141;SDS011;1581;51.568;6.998;2022-07-22T01:59:31;4.77;;;2.17;;
3141;SDS011;1581;51.568;6.998;2022-07-22T02:01:59;7.90;;;2.07;;
3141;SDS011;1581;51.568;6.998;2022-07-22T02:04:27;5.23;;;1.90;;
3141;SDS011;1581;51.568;6.998;2022-07-22T02:06:54;4.90;;;2.23;;
3141;SDS011;1581;51.568;6.998;2022-07-22T02:09:22;4.00;;;2.13;;
3141;SDS011;1581;51.568;6.998;2022-07-22T02:11:51;8.03;;;2.70;;
3141;SDS011;1581;51.568;6.998;2022-07-22T02:14:18;7.37;;;2.37;;
3141;SDS011;1581;51.568;6.998;2022-07-22T02:16:46;3.40;;;2.20;;
3141;SDS011;1581;51.568;6.998;2022-07-22T02:19:14;2.80;;;2.20;;
3141;SDS011;1581;51.568;6.998;2022-07-22T02:21:41;4.10;;;2.40;;
3141;SDS011;1581;51.568;6.998;2022-07-22T02:24:09;6.10;;;2.90;;
3141;SDS011;1581;51.568;6.998;2022-07-22T02:26:36;4.43;;;2.30;;
3141;SDS011;1581;51.568;6.998;2022-07-22T02:29:06;5.20;;;2.30;;
3141;SDS011;1581;51.568;6.998;2022-07-22T02:31:33;1.97;;;1.77;;
3141;SDS011;1581;51.568;6.998;2022-07-22T02:34:01;2.53;;;1.70;;
3141;SDS011;1581;51.568;6.998;2022-07-22T02:36:29;4.43;;;1.93;;
3141;SDS011;1581;51.568;6.998;2022-07-22T02:38:57;6.20;;;2.17;;
3141;SDS011;1581;51.568;6.998;2022-07-22T02:41:25;6.00;;;1.93;;
3141;SDS011;1581;51.568;6.998;2022-07-22T02:43:53;2.70;;;1.80;;
3141;SDS011;1581;51.568;6.998;2022-07-22T02:46:22;3.03;;;1.80;;
3141;SDS011;1581;51.568;6.998;2022-07-22T02:48:50;6.90;;;2.00;;
3141;SDS011;1581;51.568;6.998;2022-07-22T02:51:18;3.90;;;2.30;;
3141;SDS011;1581;51.568;6.998;2022-07-22T02:53:46;7.17;;;2.73;;
3141;SDS011;1581;51.568;6.998;2022-07-22T02:56:15;4.93;;;1.83;;
3141;SDS011;1581;51.568;6.998;2022-07-22T02:58:45;4.60;;;2.03;;
3141;SDS011;1581;51.568;6.998;2022-07-22T03:01:13;4.97;;;2.17;;
3141;SDS011;1581;51.568;6.998;2022-07-22T03:03:42;10.40;;;2.20;;
3141;SDS011;1581;51.568;6.998;2022-07-22T03:06:10;6.90;;;1.87;;
3141;SDS011;1581;51.568;6.998;2022-07-22T03:08:38;5.90;;;2.00;;
3141;SDS011;1581;51.568;6.998;2022-07-22T03:11:07;16.70;;;2.17;;
3141;SDS011;1581;51.568;6.998;2022-07-22T03:13:34;3.33;;;1.93;;
3141;SDS011;1581;51.568;6.998;2022-07-22T03:18:52;7.80;;;2.37;;
3141;SDS011;1581;51.568;6.998;2022-07-22T03:21:20;5.47;;;2.07;;
3141;SDS011;1581;51.568;6.998;2022-07-22T03:23:48;3.63;;;2.30;;
3141;SDS011;1581;51.568;6.998;2022-07-22T03:26:18;7.17;;;2.90;;
3141;SDS011;1581;51.568;6.998;2022-07-22T03:28:46;2.73;;;1.70;;
3141;SDS011;1581;51.568;6.998;2022-07-22T03:31:14;5.70;;;2.30;;
3141;SDS011;1581;51.568;6.998;2022-07-22T03:33:42;4.20;;;2.07;;
3141;SDS011;1581;51.568;6.998;2022-07-22T03:36:11;9.87;;;2.10;;
3141;SDS011;1581;51.568;6.998;2022-07-22T03:38:40;6.13;;;1.60;;
3141;SDS011;1581;51.568;6.998;2022-07-22T03:41:07;3.90;;;2.67;;
3141;SDS011;1581;51.568;6.998;2022-07-22T03:43:35;9.30;;;2.20;;
3141;SDS011;1581;51.568;6.998;2022-07-22T03:46:02;6.43;;;2.43;;
3141;SDS011;1581;51.568;6.998;2022-07-22T03:48:30;5.07;;;2.40;;
3141;SDS011;1581;51.568;6.998;2022-07-22T03:50:58;5.27;;;2.10;;
3141;SDS011;1581;51.568;6.998;2022-07-22T03:53:27;5.50;;;1.97;;
3141;SDS011;1581;51.568;6.998;2022-07-22T03:55:57;7.13;;;2.57;;
3141;SDS011;1581;51.568;6.998;2022-07-22T03:58:25;12.13;;;2.97;;
3141;SDS011;1581;51.568;6.998;2022-07-22T04:00:53;4.53;;;2.00;;
3141;SDS011;1581;51.568;6.998;2022-07-22T04:03:21;7.43;;;2.40;;
3141;SDS011;1581;51.568;6.998;2022-07-22T04:05:49;6.57;;;2.70;;
3141;SDS011;1581;51.568;6.998;2022-07-22T04:08:17;10.30;;;2.40;;
3141;SDS011;1581;51.568;6.998;2022-07-22T04:10:46;4.60;;;2.03;;
3141;SDS011;1581;51.568;6.998;2022-07-22T04:13:14;8.97;;;2.63;;
3141;SDS011;1581;51.568;6.998;2022-07-22T04:15:41;4.33;;;2.80;;
3141;SDS011;1581;51.568;6.998;2022-07-22T04:18:09;3.93;;;2.37;;
3141;SDS011;1581;51.568;6.998;2022-07-22T04:20:36;8.13;;;2.43;;
3141;SDS011;1581;51.568;6.998;2022-07-22T04:23:04;4.20;;;3.33;;
3141;SDS011;1581;51.568;6.998;2022-07-22T04:25:31;5.87;;;2.70;;
3141;SDS011;1581;51.568;6.998;2022-07-22T04:28:00;3.87;;;2.40;;
3141;SDS011;1581;51.568;6.998;2022-07-22T04:30:28;10.43;;;2.93;;
3141;SDS011;1581;51.568;6.998;2022-07-22T04:32:57;3.00;;;2.77;;
3141;SDS011;1581;51.568;6.998;2022-07-22T04:35:24;5.10;;;2.63;;
3141;SDS011;1581;51.568;6.998;2022-07-22T04:37:52;7.93;;;2.27;;
3141;SDS011;1581;51.568;6.998;2022-07-22T04:40:20;10.33;;;2.43;;
3141;SDS011;1581;51.568;6.998;2022-07-22T04:42:47;6.63;;;1.97;;
3141;SDS011;1581;51.568;6.998;2022-07-22T04:45:16;17.10;;;2.70;;
3141;SDS011;1581;51.568;6.998;2022-07-22T04:47:44;9.60;;;2.30;;
3141;SDS011;1581;51.568;6.998;2022-07-22T04:50:12;4.00;;;2.10;;
3141;SDS011;1581;51.568;6.998;2022-07-22T04:52:39;8.03;;;2.80;;
3141;SDS011;1581;51.568;6.998;2022-07-22T04:55:07;3.87;;;2.13;;
3141;SDS011;1581;51.568;6.998;2022-07-22T04:57:35;5.50;;;1.80;;
3141;SDS011;1581;51.568;6.998;2022-07-22T05:00:04;6.53;;;2.43;;
3141;SDS011;1581;51.568;6.998;2022-07-22T05:02:35;5.07;;;2.40;;
3141;SDS011;1581;51.568;6.998;2022-07-22T05:05:02;18.70;;;2.50;;
3141;SDS011;1581;51.568;6.998;2022-07-22T05:07:31;5.23;;;2.50;;
3141;SDS011;1581;51.568;6.998;2022-07-22T05:09:58;15.33;;;2.30;;
3141;SDS011;1581;51.568;6.998;2022-07-22T05:12:26;6.10;;;2.17;;
3141;SDS011;1581;51.568;6.998;2022-07-22T05:14:54;4.90;;;1.97;;
3141;SDS011;1581;51.568;6.998;2022-07-22T05:17:22;4.20;;;2.10;;
3141;SDS011;1581;51.568;6.998;2022-07-22T05:19:51;14.70;;;2.03;;
3141;SDS011;1581;51.568;6.998;2022-07-22T05:22:19;9.53;;;2.10;;
3141;SDS011;1581;51.568;6.998;2022-07-22T05:24:46;4.70;;;1.77;;
3141;SDS011;1581;51.568;6.998;2022-07-22T05:27:14;4.17;;;1.70;;
3141;SDS011;1581;51.568;6.998;2022-07-22T05:29:41;5.67;;;1.97;;
3141;SDS011;1581;51.568;6.998;2022-07-22T05:32:10;6.82;;;2.17;;
3141;SDS011;1581;51.568;6.998;2022-07-22T05:34:38;7.72;;;2.63;;
3141;SDS011;1581;51.568;6.998;2022-07-22T05:37:07;4.03;;;1.90;;
3141;SDS011;1581;51.568;6.998;2022-07-22T05:39:35;5.30;;;2.67;;
3141;SDS011;1581;51.568;6.998;2022-07-22T05:42:03;9.10;;;1.83;;
3141;SDS011;1581;51.568;6.998;2022-07-22T05:44:32;7.10;;;2.00;;
3141;SDS011;1581;51.568;6.998;2022-07-22T05:47:00;9.50;;;2.47;;
3141;SDS011;1581;51.568;6.998;2022-07-22T05:49:28;10.00;;;1.95;;
3141;SDS011;1581;51.568;6.998;2022-07-22T05:51:56;5.73;;;2.47;;
3141;SDS011;1581;51.568;6.998;2022-07-22T05:54:27;4.75;;;2.60;;
3141;SDS011;1581;51.568;6.998;2022-07-22T05:56:55;5.32;;;1.92;;
3141;SDS011;1581;51.568;6.998;2022-07-22T05:59:23;6.93;;;1.85;;
3141;SDS011;1581;51.568;6.998;2022-07-22T06:01:50;2.97;;;1.80;;
3141;SDS011;1581;51.568;6.998;2022-07-22T06:04:19;7.32;;;2.03;;
3141;SDS011;1581;51.568;6.998;2022-07-22T06:06:47;2.58;;;1.60;;
3141;SDS011;1581;51.568;6.998;2022-07-22T06:09:15;7.97;;;2.13;;
3141;SDS011;1581;51.568;6.998;2022-07-22T06:11:44;5.35;;;1.80;;
3141;SDS011;1581;51.568;6.998;2022-07-22T06:14:12;7.28;;;2.15;;
3141;SDS011;1581;51.568;6.998;2022-07-22T06:16:40;7.53;;;2.00;;
3141;SDS011;1581;51.568;6.998;2022-07-22T06:19:08;6.03;;;1.73;;
3141;SDS011;1581;51.568;6.998;2022-07-22T06:21:35;9.07;;;2.00;;
3141;SDS011;1581;51.568;6.998;2022-07-22T06:24:04;7.45;;;1.70;;
3141;SDS011;1581;51.568;6.998;2022-07-22T06:26:33;1.88;;;1.77;;
3141;SDS011;1581;51.568;6.998;2022-07-22T06:29:03;8.63;;;1.92;;
3141;SDS011;1581;51.568;6.998;2022-07-22T06:31:31;3.50;;;1.55;;
3141;SDS011;1581;51.568;6.998;2022-07-22T06:33:58;2.22;;;1.63;;
3141;SDS011;1581;51.568;6.998;2022-07-22T06:36:30;1.88;;;1.13;;
3141;SDS011;1581;51.568;6.998;2022-07-22T06:38:59;1.73;;;1.63;;
3141;SDS011;1581;51.568;6.998;2022-07-22T06:41:28;3.33;;;1.83;;
3141;SDS011;1581;51.568;6.998;2022-07-22T06:43:57;2.60;;;1.98;;
3141;SDS011;1581;51.568;6.998;2022-07-22T06:46:28;4.85;;;1.75;;
3141;SDS011;1581;51.568;6.998;2022-07-22T06:48:56;3.17;;;1.80;;
3141;SDS011;1581;51.568;6.998;2022-07-22T06:51:25;2.15;;;1.67;;
3141;SDS011;1581;51.568;6.998;2022-07-22T06:53:54;6.35;;;1.48;;
3141;SDS011;1581;51.568;6.998;2022-07-22T06:56:22;6.70;;;1.80;;
3141;SDS011;1581;51.568;6.998;2022-07-22T06:58:50;3.25;;;1.67;;
3141;SDS011;1581;51.568;6.998;2022-07-22T07:01:29;3.60;;;1.48;;
3141;SDS011;1581;51.568;6.998;2022-07-22T07:03:56;9.05;;;1.83;;
3141;SDS011;1581;51.568;6.998;2022-07-22T07:06:24;7.72;;;1.80;;
3141;SDS011;1581;51.568;6.998;2022-07-22T07:08:52;3.28;;;1.70;;
3141;SDS011;1581;51.568;6.998;2022-07-22T07:11:23;2.35;;;1.17;;
3141;SDS011;1581;51.568;6.998;2022-07-22T07:13:51;2.75;;;1.60;;
3141;SDS011;1581;51.568;6.998;2022-07-22T07:16:19;3.80;;;1.50;;
3141;SDS011;1581;51.568;6.998;2022-07-22T07:18:49;5.45;;;1.73;;
3141;SDS011;1581;51.568;6.998;2022-07-22T07:21:16;2.50;;;1.70;;
3141;SDS011;1581;51.568;6.998;2022-07-22T07:23:44;1.50;;;1.40;;
3141;SDS011;1581;51.568;6.998;2022-07-22T07:26:12;5.38;;;2.08;;
3141;SDS011;1581;51.568;6.998;2022-07-22T07:28:43;4.45;;;1.88;;
3141;SDS011;1581;51.568;6.998;2022-07-22T07:31:11;1.98;;;1.40;;
3141;SDS011;1581;51.568;6.998;2022-07-22T07:33:39;2.92;;;1.67;;
3141;SDS011;1581;51.568;6.998;2022-07-22T07:36:08;5.47;;;1.98;;
3141;SDS011;1581;51.568;6.998;2022-07-22T07:38:36;4.32;;;1.48;;
3141;SDS011;1581;51.568;6.998;2022-07-22T07:41:04;2.95;;;1.50;;
3141;SDS011;1581;51.568;6.998;2022-07-22T07:43:32;4.20;;;1.63;;
3141;SDS011;1581;51.568;6.998;2022-07-22T07:45:59;3.45;;;1.65;;
3141;SDS011;1581;51.568;6.998;2022-07-22T07:48:27;6.00;;;2.53;;
3141;SDS011;1581;51.568;6.998;2022-07-22T07:50:55;3.20;;;1.40;;
3141;SDS011;1581;51.568;6.998;2022-07-22T07:53:24;5.35;;;1.67;;
3141;SDS011;1581;51.568;6.998;2022-07-22T07:55:52;2.38;;;1.60;;
3141;SDS011;1581;51.568;6.998;2022-07-22T07:58:20;3.70;;;1.77;;
3141;SDS011;1581;51.568;6.998;2022-07-22T08:00:49;1.30;;;1.25;;
3141;SDS011;1581;51.568;6.998;2022-07-22T08:03:16;8.93;;;1.73;;
3141;SDS011;1581;51.568;6.998;2022-07-22T08:05:44;4.10;;;1.80;;
3141;SDS011;1581;51.568;6.998;2022-07-22T08:08:12;3.95;;;1.67;;
3141;SDS011;1581;51.568;6.998;2022-07-22T08:10:41;4.32;;;1.70;;
3141;SDS011;1581;51.568;6.998;2022-07-22T08:13:09;6.40;;;1.65;;
3141;SDS011;1581;51.568;6.998;2022-07-22T08:15:36;2.20;;;1.25;;
3141;SDS011;1581;51.568;6.998;2022-07-22T08:18:04;5.68;;;2.22;;
3141;SDS011;1581;51.568;6.998;2022-07-22T08:20:32;3.00;;;1.58;;
3141;SDS011;1581;51.568;6.998;2022-07-22T08:22:59;1.73;;;1.35;;
3141;SDS011;1581;51.568;6.998;2022-07-22T08:25:27;2.97;;;1.95;;
3141;SDS011;1581;51.568;6.998;2022-07-22T08:27:57;3.55;;;1.42;;
3141;SDS011;1581;51.568;6.998;2022-07-22T08:30:25;2.65;;;1.85;;
3141;SDS011;1581;51.568;6.998;2022-07-22T08:32:54;2.95;;;1.70;;
3141;SDS011;1581;51.568;6.998;2022-07-22T08:35:22;4.97;;;2.05;;
3141;SDS011;1581;51.568;6.998;2022-07-22T08:37:49;5.38;;;1.52;;
3141;SDS011;1581;51.568;6.998;2022-07-22T08:40:18;1.92;;;1.70;;
3141;SDS011;1581;51.568;6.998;2022-07-22T08:42:48;8.75;;;1.52;;
3141;SDS011;1581;51.568;6.998;2022-07-22T08:45:18;3.72;;;1.77;;
3141;SDS011;1581;51.568;6.998;2022-07-22T08:47:46;4.65;;;1.75;;
3141;SDS011;1581;51.568;6.998;2022-07-22T08:50:17;5.75;;;1.60;;
3141;SDS011;1581;51.568;6.998;2022-07-22T08:52:45;2.38;;;1.52;;
3141;SDS011;1581;51.568;6.998;2022-07-22T08:55:13;4.55;;;1.60;;
3141;SDS011;1581;51.568;6.998;2022-07-22T08:57:43;2.20;;;1.13;;
3141;SDS011;1581;51.568;6.998;2022-07-22T09:00:13;2.58;;;1.83;;
3141;SDS011;1581;51.568;6.998;2022-07-22T09:02:45;2.67;;;1.60;;
3141;SDS011;1581;51.568;6.998;2022-07-22T09:05:13;2.63;;;1.63;;
3141;SDS011;1581;51.568;6.998;2022-07-22T09:07:43;3.42;;;1.80;;
3141;SDS011;1581;51.568;6.998;2022-07-22T09:13:21;1.55;;;1.15;;
3141;SDS011;1581;51.568;6.998;2022-07-22T09:15:51;3.33;;;1.98;;
3141;SDS011;1581;51.568;6.998;2022-07-22T09:18:22;7.80;;;2.03;;
3141;SDS011;1581;51.568;6.998;2022-07-22T09:20:49;2.42;;;1.83;;
3141;SDS011;1581;51.568;6.998;2022-07-22T09:23:25;5.53;;;1.70;;
3141;SDS011;1581;51.568;6.998;2022-07-22T09:26:04;1.67;;;1.50;;
3141;SDS011;1581;51.568;6.998;2022-07-22T09:28:32;2.67;;;2.20;;
3141;SDS011;1581;51.568;6.998;2022-07-22T09:31:00;2.80;;;2.03;;
3141;SDS011;1581;51.568;6.998;2022-07-22T09:33:29;3.58;;;1.80;;
3141;SDS011;1581;51.568;6.998;2022-07-22T09:36:01;2.53;;;1.73;;
3141;SDS011;1581;51.568;6.998;2022-07-22T09:38:30;5.72;;;2.20;;
3141;SDS011;1581;51.568;6.998;2022-07-22T09:40:59;6.07;;;3.20;;
3141;SDS011;1581;51.568;6.998;2022-07-22T09:43:29;4.63;;;2.35;;
3141;SDS011;1581;51.568;6.998;2022-07-22T09:46:02;3.42;;;2.13;;
3141;SDS011;1581;51.568;6.998;2022-07-22T09:48:33;2.72;;;2.20;;
3141;SDS011;1581;51.568;6.998;2022-07-22T09:51:02;4.20;;;2.13;;
3141;SDS011;1581;51.568;6.998;2022-07-22T09:53:31;4.43;;;1.88;;
3141;SDS011;1581;51.568;6.998;2022-07-22T09:56:01;11.02;;;1.92;;
3141;SDS011;1581;51.568;6.998;2022-07-22T09:58:31;7.72;;;2.70;;
3141;SDS011;1581;51.568;6.998;2022-07-22T10:00:59;7.13;;;2.47;;
3141;SDS011;1581;51.568;6.998;2022-07-22T10:03:37;2.95;;;2.55;;
3141;SDS011;1581;51.568;6.998;2022-07-22T10:06:22;4.93;;;2.50;;
3141;SDS011;1581;51.568;6.998;2022-07-22T10:09:01;13.20;;;3.05;;
3141;SDS011;1581;51.568;6.998;2022-07-22T10:11:29;7.35;;;2.88;;
3141;SDS011;1581;51.568;6.998;2022-07-22T10:13:59;3.60;;;2.13;;
3141;SDS011;1581;51.568;6.998;2022-07-22T10:16:36;5.68;;;2.20;;
3141;SDS011;1581;51.568;6.998;2022-07-22T10:19:12;4.47;;;2.22;;
3141;SDS011;1581;51.568;6.998;2022-07-22T10:21:41;5.00;;;3.25;;
3141;SDS011;1581;51.568;6.998;2022-07-22T10:24:10;5.90;;;2.03;;
3141;SDS011;1581;51.568;6.998;2022-07-22T10:26:46;7.88;;;2.80;;
3141;SDS011;1581;51.568;6.998;2022-07-22T10:29:24;4.22;;;2.65;;
3141;SDS011;1581;51.568;6.998;2022-07-22T10:37:49;5.32;;;3.15;;
3141;SDS011;1581;51.568;6.998;2022-07-22T10:40:20;4.30;;;3.10;;
3141;SDS011;1581;51.568;6.998;2022-07-22T10:43:02;9.65;;;3.15;;
3141;SDS011;1581;51.568;6.998;2022-07-22T10:45:40;7.78;;;3.45;;
3141;SDS011;1581;51.568;6.998;2022-07-22T10:48:13;9.25;;;2.80;;
3141;SDS011;1581;51.568;6.998;2022-07-22T10:50:46;7.25;;;3.47;;
3141;SDS011;1581;51.568;6.998;2022-07-22T10:53:41;6.68;;;3.20;;
3141;SDS011;1581;51.568;6.998;2022-07-22T10:56:21;6.15;;;3.20;;
3141;SDS011;1581;51.568;6.998;2022-07-22T10:58:52;9.52;;;4.05;;
3141;SDS011;1581;51.568;6.998;2022-07-22T11:01:27;11.30;;;6.05;;
3141;SDS011;1581;51.568;6.998;2022-07-22T11:04:07;16.23;;;6.43;;
3141;SDS011;1581;51.568;6.998;2022-07-22T11:06:43;9.63;;;4.93;;
3141;SDS011;1581;51.568;6.998;2022-07-22T11:09:13;4.72;;;4.03;;
3141;SDS011;1581;51.568;6.998;2022-07-22T11:11:43;8.10;;;4.03;;
3141;SDS011;1581;51.568;6.998;2022-07-22T11:14:13;4.85;;;3.75;;
3141;SDS011;1581;51.568;6.998;2022-07-22T11:16:45;5.82;;;3.88;;
3141;SDS011;1581;51.568;6.998;2022-07-22T11:19:16;6.50;;;4.70;;
3141;SDS011;1581;51.568;6.998;2022-07-22T11:21:50;8.77;;;5.93;;
3141;SDS011;1581;51.568;6.998;2022-07-22T11:24:21;10.85;;;5.15;;
3141;SDS011;1581;51.568;6.998;2022-07-22T11:26:51;8.73;;;6.88;;
3141;SDS011;1581;51.568;6.998;2022-07-22T11:29:24;9.40;;;6.13;;
3141;SDS011;1581;51.568;6.998;2022-07-22T11:31:54;8.40;;;5.43;;
3141;SDS011;1581;51.568;6.998;2022-07-22T11:34:24;7.93;;;4.72;;
3141;SDS011;1581;51.568;6.998;2022-07-22T11:36:54;10.02;;;4.78;;
3141;SDS011;1581;51.568;6.998;2022-07-22T11:39:26;6.57;;;4.18;;
3141;SDS011;1581;51.568;6.998;2022-07-22T11:41:56;8.13;;;4.72;;
3141;SDS011;1581;51.568;6.998;2022-07-22T11:44:26;5.90;;;4.35;;
3141;SDS011;1581;51.568;6.998;2022-07-22T11:46:57;7.05;;;4.53;;
3141;SDS011;1581;51.568;6.998;2022-07-22T11:49:26;10.30;;;4.95;;
3141;SDS011;1581;51.568;6.998;2022-07-22T11:51:57;8.10;;;4.75;;
3141;SDS011;1581;51.568;6.998;2022-07-22T11:54:24;7.00;;;4.70;;
3141;SDS011;1581;51.568;6.998;2022-07-22T11:56:52;13.20;;;6.80;;
3141;SDS011;1581;51.568;6.998;2022-07-22T11:59:20;8.45;;;5.82;;
3141;SDS011;1581;51.568;6.998;2022-07-22T12:01:48;11.27;;;5.03;;
3141;SDS011;1581;51.568;6.998;2022-07-22T12:04:18;8.25;;;5.18;;
3141;SDS011;1581;51.568;6.998;2022-07-22T12:06:48;7.78;;;5.85;;
3141;SDS011;1581;51.568;6.998;2022-07-22T12:09:21;10.80;;;9.65;;
3141;SDS011;1581;51.568;6.998;2022-07-22T12:11:54;12.70;;;10.18;;
3141;SDS011;1581;51.568;6.998;2022-07-22T12:14:24;11.18;;;9.18;;
3141;SDS011;1581;51.568;6.998;2022-07-22T12:16:54;13.10;;;10.88;;
3141;SDS011;1581;51.568;6.998;2022-07-22T12:19:24;17.83;;;10.63;;
3141;SDS011;1581;51.568;6.998;2022-07-22T12:21:55;18.48;;;10.05;;
3141;SDS011;1581;51.568;6.998;2022-07-22T12:24:26;10.27;;;7.65;;
3141;SDS011;1581;51.568;6.998;2022-07-22T12:26:57;9.57;;;8.50;;
3141;SDS011;1581;51.568;6.998;2022-07-22T12:29:28;11.35;;;10.10;;
3141;SDS011;1581;51.568;6.998;2022-07-22T12:32:07;12.85;;;8.75;;
3141;SDS011;1581;51.568;6.998;2022-07-22T12:34:39;12.68;;;8.48;;
3141;SDS011;1581;51.568;6.998;2022-07-22T12:37:12;14.60;;;8.82;;
3141;SDS011;1581;51.568;6.998;2022-07-22T12:39:53;11.63;;;8.70;;
3141;SDS011;1581;51.568;6.998;2022-07-22T12:42:24;16.77;;;9.32;;
3141;SDS011;1581;51.568;6.998;2022-07-22T12:45:04;16.10;;;9.98;;
3141;SDS011;1581;51.568;6.998;2022-07-22T12:47:44;11.55;;;8.63;;
3141;SDS011;1581;51.568;6.998;2022-07-22T12:50:21;9.50;;;7.35;;
3141;SDS011;1581;51.568;6.998;2022-07-22T12:52:53;15.65;;;7.78;;
3141;SDS011;1581;51.568;6.998;2022-07-22T12:55:24;13.52;;;8.05;;
3141;SDS011;1581;51.568;6.998;2022-07-22T12:57:53;11.18;;;9.35;;
3141;SDS011;1581;51.568;6.998;2022-07-22T13:00:22;9.48;;;8.48;;
3141;SDS011;1581;51.568;6.998;2022-07-22T13:02:52;16.42;;;10.20;;
3141;SDS011;1581;51.568;6.998;2022-07-22T13:05:20;9.90;;;8.40;;
3141;SDS011;1581;51.568;6.998;2022-07-22T13:07:49;14.55;;;9.55;;
3141;SDS011;1581;51.568;6.998;2022-07-22T13:10:18;10.52;;;8.80;;
3141;SDS011;1581;51.568;6.998;2022-07-22T13:12:48;9.48;;;8.20;;
3141;SDS011;1581;51.568;6.998;2022-07-22T13:15:16;15.68;;;7.57;;
3141;SDS011;1581;51.568;6.998;2022-07-22T13:17:44;14.13;;;7.22;;
3141;SDS011;1581;51.568;6.998;2022-07-22T13:20:12;10.23;;;7.70;;
3141;SDS011;1581;51.568;6.998;2022-07-22T13:22:42;9.30;;;6.07;;
3141;SDS011;1581;51.568;6.998;2022-07-22T13:25:10;9.52;;;6.50;;
3141;SDS011;1581;51.568;6.998;2022-07-22T13:27:38;8.25;;;7.45;;
3141;SDS011;1581;51.568;6.998;2022-07-22T13:30:09;10.85;;;6.57;;
3141;SDS011;1581;51.568;6.998;2022-07-22T13:32:37;8.10;;;6.60;;
3141;SDS011;1581;51.568;6.998;2022-07-22T13:35:06;9.30;;;6.53;;
3141;SDS011;1581;51.568;6.998;2022-07-22T13:37:34;6.70;;;5.63;;
3141;SDS011;1581;51.568;6.998;2022-07-22T13:40:02;8.90;;;6.75;;
3141;SDS011;1581;51.568;6.998;2022-07-22T13:42:31;7.22;;;6.45;;
3141;SDS011;1581;51.568;6.998;2022-07-22T13:44:59;6.93;;;4.80;;
3141;SDS011;1581;51.568;6.998;2022-07-22T13:47:29;4.93;;;4.50;;
3141;SDS011;1581;51.568;6.998;2022-07-22T13:49:57;5.10;;;4.70;;
3141;SDS011;1581;51.568;6.998;2022-07-22T13:52:26;8.02;;;5.35;;
3141;SDS011;1581;51.568;6.998;2022-07-22T13:54:53;5.57;;;4.40;;
3141;SDS011;1581;51.568;6.998;2022-07-22T13:57:21;4.35;;;3.60;;
3141;SDS011;1581;51.568;6.998;2022-07-22T13:59:49;6.88;;;4.63;;
3141;SDS011;1581;51.568;6.998;2022-07-22T14:02:16;6.78;;;3.78;;
3141;SDS011;1581;51.568;6.998;2022-07-22T14:04:46;5.57;;;4.68;;
3141;SDS011;1581;51.568;6.998;2022-07-22T14:07:13;5.15;;;4.45;;
3141;SDS011;1581;51.568;6.998;2022-07-22T14:09:41;7.05;;;6.03;;
3141;SDS011;1581;51.568;6.998;2022-07-22T14:12:09;6.35;;;5.70;;
3141;SDS011;1581;51.568;6.998;2022-07-22T14:14:37;7.75;;;6.25;;
3141;SDS011;1581;51.568;6.998;2022-07-22T14:17:05;6.25;;;5.57;;
3141;SDS011;1581;51.568;6.998;2022-07-22T14:19:32;8.38;;;5.78;;
3141;SDS011;1581;51.568;6.998;2022-07-22T14:22:01;13.55;;;6.45;;
3141;SDS011;1581;51.568;6.998;2022-07-22T14:24:29;11.05;;;5.78;;
3141;SDS011;1581;51.568;6.998;2022-07-22T14:26:57;6.97;;;5.55;;
3141;SDS011;1581;51.568;6.998;2022-07-22T14:29:24;8.57;;;5.07;;
3141;SDS011;1581;51.568;6.998;2022-07-22T14:31:52;5.18;;;4.68;;
3141;SDS011;1581;51.568;6.998;2022-07-22T14:34:22;7.95;;;5.13;;
3141;SDS011;1581;51.568;6.998;2022-07-22T14:36:50;5.68;;;4.75;;
3141;SDS011;1581;51.568;6.998;2022-07-22T14:39:20;9.63;;;5.65;;
3141;SDS011;1581;51.568;6.998;2022-07-22T14:41:48;7.30;;;5.88;;
3141;SDS011;1581;51.568;6.998;2022-07-22T14:44:16;7.50;;;6.15;;
3141;SDS011;1581;51.568;6.998;2022-07-22T14:46:44;7.88;;;5.95;;
3141;SDS011;1581;51.568;6.998;2022-07-22T14:49:11;6.15;;;5.47;;
3141;SDS011;1581;51.568;6.998;2022-07-22T14:51:40;9.07;;;6.35;;
3141;SDS011;1581;51.568;6.998;2022-07-22T14:54:08;5.57;;;5.07;;
3141;SDS011;1581;51.568;6.998;2022-07-22T14:56:39;6.60;;;4.90;;
3141;SDS011;1581;51.568;6.998;2022-07-22T14:59:07;12.18;;;5.65;;
3141;SDS011;1581;51.568;6.998;2022-07-22T15:01:35;9.32;;;5.28;;
3141;SDS011;1581;51.568;6.998;2022-07-22T15:04:02;9.02;;;5.72;;
3141;SDS011;1581;51.568;6.998;2022-07-22T15:06:30;7.35;;;4.90;;
3141;SDS011;1581;51.568;6.998;2022-07-22T15:08:58;5.85;;;5.25;;
3141;SDS011;1581;51.568;6.998;2022-07-22T15:11:26;5.57;;;5.07;;
3141;SDS011;1581;51.568;6.998;2022-07-22T15:13:55;4.25;;;3.92;;
3141;SDS011;1581;51.568;6.998;2022-07-22T15:16:23;4.43;;;3.67;;
3141;SDS011;1581;51.568;6.998;2022-07-22T15:18:51;3.58;;;3.28;;
3141;SDS011;1581;51.568;6.998;2022-07-22T15:21:20;4.70;;;3.13;;
3141;SDS011;1581;51.568;6.998;2022-07-22T15:23:48;3.33;;;3.03;;
3141;SDS011;1581;51.568;6.998;2022-07-22T15:26:16;12.15;;;3.88;;
3141;SDS011;1581;51.568;6.998;2022-07-22T15:28:45;3.38;;;2.70;;
3141;SDS011;1581;51.568;6.998;2022-07-22T15:31:14;13.00;;;2.85;;
3141;SDS011;1581;51.568;6.998;2022-07-22T15:33:42;3.58;;;2.45;;
3141;SDS011;1581;51.568;6.998;2022-07-22T15:36:10;3.28;;;2.83;;